createdAt,value
2023-04-30T10:13:58.000Z,83.70
2023-04-30T10:16:53.325Z,83.40
2023-04-30T10:19:22.259Z,84.10
2023-04-30T10:21:49.841Z,82.00
2023-04-30T10:24:19.447Z,82.00
2023-04-30T10:26:50.050Z,80.50
2023-04-30T10:29:18.134Z,80.50
2023-04-30T10:31:49.759Z,81.10
2023-04-30T10:34:43.294Z,79.70
2023-04-30T10:37:33.648Z,79.90
2023-04-30T10:40:02.176Z,79.20
2023-04-30T10:42:29.057Z,79.30
2023-04-30T10:44:56.771Z,80.00
2023-04-30T10:47:29.308Z,80.10
2023-04-30T10:50:08.345Z,79.30
2023-04-30T10:52:37.511Z,78.70
2023-04-30T10:55:17.405Z,78.70
2023-04-30T10:57:46.690Z,78.20
2023-04-30T11:00:14.527Z,76.80
2023-04-30T11:02:45.172Z,78.40
2023-04-30T11:05:13.909Z,76.40
2023-04-30T11:08:13.425Z,77.10
2023-04-30T11:10:58.956Z,75.60
2023-04-30T11:13:27.479Z,77.70
2023-04-30T11:15:54.787Z,77.40
2023-04-30T11:18:21.700Z,77.00
2023-04-30T11:20:51.958Z,76.80
2023-04-30T11:23:32.194Z,76.50
2023-04-30T11:26:07.865Z,75.80
2023-04-30T11:28:37.814Z,75.20
2023-04-30T11:31:05.735Z,74.30
2023-04-30T11:33:34.642Z,77.80
2023-04-30T11:36:02.236Z,75.20
2023-04-30T11:38:37.129Z,74.90
2023-04-30T11:41:05.000Z,75.40
2023-04-30T11:43:33.420Z,75.50
2023-04-30T11:46:01.407Z,75.10
2023-04-30T11:48:42.380Z,76.00
2023-04-30T11:51:19.255Z,75.50
2023-04-30T11:53:50.910Z,72.90
2023-04-30T11:56:23.505Z,74.30
2023-04-30T11:58:52.219Z,74.80
2023-04-30T12:01:21.241Z,74.60
2023-04-30T12:03:51.275Z,72.20
2023-04-30T12:06:27.606Z,73.30
2023-04-30T12:08:56.044Z,72.40
2023-04-30T12:11:25.774Z,71.70
2023-04-30T12:13:52.817Z,70.70
2023-04-30T12:16:20.038Z,69.40
2023-04-30T12:18:47.943Z,70.60
2023-04-30T12:21:15.354Z,70.50
2023-04-30T12:23:42.383Z,69.80
2023-04-30T12:26:09.257Z,69.40
2023-04-30T12:28:36.391Z,69.30
2023-04-30T12:31:06.611Z,71.20
2023-04-30T12:33:33.475Z,69.40
2023-04-30T12:36:00.248Z,69.90
2023-04-30T12:38:29.242Z,69.20
2023-04-30T12:40:56.718Z,70.40
2023-04-30T12:43:23.587Z,69.90
2023-04-30T12:45:53.854Z,67.40
2023-04-30T12:48:25.536Z,68.20
2023-04-30T12:51:02.450Z,70.30
2023-04-30T12:53:29.745Z,68.00
2023-04-30T12:56:17.545Z,68.00
2023-04-30T12:58:47.563Z,68.30
2023-04-30T13:01:18.353Z,68.70
2023-04-30T13:03:45.347Z,68.90
2023-04-30T13:06:12.492Z,67.00
2023-04-30T13:08:56.166Z,68.70
2023-04-30T13:11:26.107Z,68.60
2023-04-30T13:13:55.362Z,68.00
2023-04-30T13:16:23.001Z,68.40
2023-04-30T13:18:49.955Z,69.80
2023-04-30T13:21:16.866Z,69.80
2023-04-30T13:23:51.877Z,70.20
2023-04-30T13:26:23.001Z,70.10
2023-04-30T13:28:49.992Z,69.70
2023-04-30T13:31:17.161Z,69.10
2023-04-30T13:33:44.106Z,70.20
2023-04-30T13:36:10.984Z,69.60
2023-04-30T13:38:39.245Z,70.40
2023-04-30T13:41:06.729Z,70.50
2023-04-30T13:43:33.647Z,69.20
2023-04-30T13:46:00.509Z,68.70
2023-04-30T13:48:27.319Z,68.50
2023-04-30T13:50:54.628Z,70.10
2023-04-30T13:53:21.616Z,70.40
2023-04-30T13:55:48.580Z,68.80
2023-04-30T13:58:15.814Z,70.00
2023-04-30T14:00:42.961Z,68.70
2023-04-30T14:03:10.288Z,68.80
2023-04-30T14:05:37.640Z,68.80
2023-04-30T14:08:05.090Z,68.50
2023-04-30T14:10:32.664Z,68.70
2023-04-30T14:12:59.562Z,68.30
2023-04-30T14:15:27.670Z,69.70
2023-04-30T14:17:54.577Z,68.90
2023-04-30T14:20:22.845Z,68.10
2023-04-30T14:22:49.638Z,70.00
2023-04-30T14:25:17.321Z,69.80
2023-04-30T14:27:44.209Z,70.50
2023-04-30T14:30:13.460Z,69.00
2023-04-30T14:32:40.416Z,68.90
2023-04-30T14:35:07.875Z,70.10
2023-04-30T14:37:34.745Z,70.20
2023-04-30T14:40:02.931Z,70.50
2023-04-30T14:42:29.827Z,70.40
2023-04-30T14:44:56.634Z,70.80
2023-04-30T14:47:27.281Z,71.60
2023-04-30T14:49:54.450Z,72.40
2023-04-30T14:52:21.518Z,72.80
2023-04-30T14:54:48.333Z,72.30
2023-04-30T14:57:15.243Z,72.70
2023-04-30T14:59:45.163Z,72.70
2023-04-30T15:02:12.101Z,74.00
2023-04-30T15:04:39.023Z,73.00
2023-04-30T15:07:08.219Z,73.10
2023-04-30T15:09:35.102Z,72.90
2023-04-30T15:12:01.977Z,73.20
2023-04-30T15:14:28.765Z,72.30
2023-04-30T15:16:56.506Z,73.40
2023-04-30T15:19:24.052Z,73.60
2023-04-30T15:21:51.214Z,74.00
2023-04-30T15:24:18.949Z,73.50
2023-04-30T15:26:46.951Z,72.90
2023-04-30T15:29:13.698Z,72.40
2023-04-30T15:31:40.584Z,72.60
2023-04-30T15:34:07.545Z,72.80
2023-04-30T15:36:34.485Z,72.80
2023-04-30T15:39:01.421Z,73.30
2023-04-30T15:41:28.214Z,72.80
2023-04-30T15:43:55.020Z,73.20
2023-04-30T15:46:21.904Z,73.30
2023-04-30T15:48:48.752Z,72.80
2023-04-30T15:51:15.530Z,72.90
2023-04-30T15:53:42.347Z,72.90
2023-04-30T15:56:09.698Z,73.00
2023-04-30T15:58:36.730Z,73.30
2023-04-30T16:01:03.759Z,73.60
2023-04-30T16:03:31.934Z,73.70
2023-04-30T16:06:00.981Z,74.60
2023-04-30T16:08:28.459Z,74.60
2023-04-30T16:10:55.285Z,74.40
2023-04-30T16:13:22.156Z,75.50
2023-04-30T16:15:49.118Z,75.20
2023-04-30T16:18:15.891Z,75.00
2023-04-30T16:20:43.224Z,75.20
2023-04-30T16:23:10.061Z,75.00
2023-04-30T16:25:37.069Z,75.00
2023-04-30T16:28:04.274Z,75.50
2023-04-30T16:30:31.842Z,75.30
2023-04-30T16:32:59.109Z,75.40
2023-04-30T16:35:26.756Z,75.40
2023-04-30T16:37:54.854Z,75.30
2023-04-30T16:40:21.709Z,75.20
2023-04-30T16:42:49.839Z,75.80
2023-04-30T16:45:17.212Z,77.40
2023-04-30T16:47:44.797Z,78.10
2023-04-30T16:50:11.668Z,79.10
2023-04-30T16:52:38.582Z,79.70
2023-04-30T16:55:05.855Z,80.30
2023-04-30T16:57:33.224Z,80.70
2023-04-30T17:00:00.099Z,81.20
2023-04-30T17:02:27.239Z,81.30
2023-04-30T17:04:54.142Z,81.70
2023-04-30T17:07:20.932Z,80.80
2023-04-30T17:09:48.053Z,81.10
2023-04-30T17:12:14.929Z,80.30
2023-04-30T17:14:42.065Z,80.50
2023-04-30T17:17:08.939Z,80.90
2023-04-30T17:19:35.753Z,80.10
2023-04-30T17:22:03.432Z,80.30
2023-04-30T17:24:30.366Z,80.60
2023-04-30T17:26:59.355Z,79.80
2023-04-30T17:29:26.164Z,79.50
2023-04-30T17:31:53.075Z,79.00
2023-04-30T17:34:20.684Z,78.70
2023-04-30T17:36:48.931Z,77.70
2023-04-30T17:39:16.361Z,77.60
2023-04-30T17:41:43.185Z,77.20
2023-04-30T17:44:09.978Z,76.70
2023-04-30T17:46:37.322Z,76.70
2023-04-30T17:49:04.605Z,76.60
2023-04-30T17:51:34.137Z,76.50
2023-04-30T17:54:01.012Z,75.60
2023-04-30T17:56:30.127Z,75.50
2023-04-30T17:58:57.459Z,75.40
2023-04-30T18:01:25.877Z,76.30
2023-04-30T18:03:53.561Z,76.40
2023-04-30T18:06:20.719Z,76.10
2023-04-30T18:08:47.995Z,75.80
2023-04-30T18:11:14.825Z,75.40
2023-04-30T18:13:41.728Z,75.70
2023-04-30T18:16:08.752Z,76.30
2023-04-30T18:18:38.404Z,75.50
2023-04-30T18:21:05.684Z,75.60
2023-04-30T18:23:32.460Z,75.30
2023-04-30T18:25:59.311Z,75.20
2023-04-30T18:28:26.096Z,75.60
2023-04-30T18:30:52.870Z,75.30
2023-04-30T18:33:19.655Z,75.30
2023-04-30T18:35:51.521Z,74.70
2023-04-30T18:38:18.647Z,75.10
2023-04-30T18:40:45.476Z,74.70
2023-04-30T18:43:13.221Z,75.20
2023-04-30T18:45:40.076Z,75.20
2023-04-30T18:48:07.893Z,76.10
2023-04-30T18:50:34.837Z,75.90
2023-04-30T18:53:01.754Z,77.20
2023-04-30T18:55:28.536Z,75.70
2023-04-30T18:57:56.380Z,75.40
2023-04-30T19:00:23.399Z,76.60
2023-04-30T19:02:50.458Z,77.00
2023-04-30T19:05:17.589Z,78.40
2023-04-30T19:07:44.671Z,78.90
2023-04-30T19:10:11.454Z,77.80
2023-04-30T19:12:38.338Z,81.20
2023-04-30T19:15:07.940Z,82.40
2023-04-30T19:17:35.148Z,82.80
2023-04-30T19:20:02.191Z,83.30
2023-04-30T19:22:29.077Z,82.80
2023-04-30T19:24:55.948Z,82.30
2023-04-30T19:27:22.849Z,82.40
2023-04-30T19:29:51.233Z,82.60
2023-04-30T19:32:18.152Z,83.70
2023-04-30T19:34:45.473Z,84.20
2023-04-30T19:37:12.311Z,83.30
2023-04-30T19:39:40.106Z,83.40
